sensor_id;sensor_type;location;lat;lon;timestamp;temperature;humidity
59556;DHT22;45374;52.746;6.304;2023-03-31T00:00:20;10.10;99.90
59556;DHT22;45374;52.746;6.304;2023-03-31T00:02:45;10.10;99.90
59556;DHT22;45374;52.746;6.304;2023-03-31T00:05:11;10.00;99.90
59556;DHT22;45374;52.746;6.304;2023-03-31T00:07:43;10.00;99.90
59556;DHT22;45374;52.746;6.304;2023-03-31T00:10:10;10.00;99.90
59556;DHT22;45374;52.746;6.304;2023-03-31T00:12:36;9.90;99.90
59556;DHT22;45374;52.746;6.304;2023-03-31T00:15:01;9.80;99.90
59556;DHT22;45374;52.746;6.304;2023-03-31T00:17:27;9.80;99.90
59556;DHT22;45374;52.746;6.304;2023-03-31T00:19:52;9.70;99.90
59556;DHT22;45374;52.746;6.304;2023-03-31T00:22:18;9.70;99.90
59556;DHT22;45374;52.746;6.304;2023-03-31T00:24:47;9.60;99.90
59556;DHT22;45374;52.746;6.304;2023-03-31T00:27:12;9.60;99.90
59556;DHT22;45374;52.746;6.304;2023-03-31T00:29:38;9.50;99.90
59556;DHT22;45374;52.746;6.304;2023-03-31T00:32:07;9.50;99.90
59556;DHT22;45374;52.746;6.304;2023-03-31T00:34:32;9.40;99.90
59556;DHT22;45374;52.746;6.304;2023-03-31T00:36:59;9.30;99.90
59556;DHT22;45374;52.746;6.304;2023-03-31T00:39:27;9.30;99.90
59556;DHT22;45374;52.746;6.304;2023-03-31T00:41:57;9.30;99.90
59556;DHT22;45374;52.746;6.304;2023-03-31T00:44:23;9.20;99.90
59556;DHT22;45374;52.746;6.304;2023-03-31T00:47:12;9.20;99.90
59556;DHT22;45374;52.746;6.304;2023-03-31T00:49:48;9.20;99.90
59556;DHT22;45374;52.746;6.304;2023-03-31T00:52:22;9.20;99.90
59556;DHT22;45374;52.746;6.304;2023-03-31T00:54:52;9.10;99.90
59556;DHT22;45374;52.746;6.304;2023-03-31T00:57:20;9.10;99.90
59556;DHT22;45374;52.746;6.304;2023-03-31T00:59:49;9.10;99.90
59556;DHT22;45374;52.746;6.304;2023-03-31T01:02:17;9.10;99.90
59556;DHT22;45374;52.746;6.304;2023-03-31T01:04:48;9.10;99.90
59556;DHT22;45374;52.746;6.304;2023-03-31T01:07:23;9.00;99.90
59556;DHT22;45374;52.746;6.304;2023-03-31T01:09:52;9.10;99.90
59556;DHT22;45374;52.746;6.304;2023-03-31T01:12:21;9.10;99.90
59556;DHT22;45374;52.746;6.304;2023-03-31T01:14:49;9.10;99.90
59556;DHT22;45374;52.746;6.304;2023-03-31T01:17:17;9.10;99.90
59556;DHT22;45374;52.746;6.304;2023-03-31T01:19:52;9.10;99.90
59556;DHT22;45374;52.746;6.304;2023-03-31T01:34:07;9.10;99.90
59556;DHT22;45374;52.746;6.304;2023-03-31T01:42:49;9.10;99.90
59556;DHT22;45374;52.746;6.304;2023-03-31T01:45:25;9.10;99.90
59556;DHT22;45374;52.746;6.304;2023-03-31T01:48:00;9.10;99.90
59556;DHT22;45374;52.746;6.304;2023-03-31T01:50:44;9.20;99.90
59556;DHT22;45374;52.746;6.304;2023-03-31T01:53:21;9.20;99.90
59556;DHT22;45374;52.746;6.304;2023-03-31T01:56:06;9.20;99.90
59556;DHT22;45374;52.746;6.304;2023-03-31T01:58:37;9.20;99.90
59556;DHT22;45374;52.746;6.304;2023-03-31T02:01:34;9.20;99.90
59556;DHT22;45374;52.746;6.304;2023-03-31T02:06:42;9.20;99.90
59556;DHT22;45374;52.746;6.304;2023-03-31T02:09:19;9.30;99.90
59556;DHT22;45374;52.746;6.304;2023-03-31T02:11:47;9.30;99.90
59556;DHT22;45374;52.746;6.304;2023-03-31T02:14:17;9.30;99.90
59556;DHT22;45374;52.746;6.304;2023-03-31T02:16:49;9.40;99.90
59556;DHT22;45374;52.746;6.304;2023-03-31T02:19:17;9.30;99.90
59556;DHT22;45374;52.746;6.304;2023-03-31T02:21:46;9.30;99.90
59556;DHT22;45374;52.746;6.304;2023-03-31T02:24:17;9.40;99.90
59556;DHT22;45374;52.746;6.304;2023-03-31T02:27:00;9.50;99.90
59556;DHT22;45374;52.746;6.304;2023-03-31T02:29:28;9.40;99.90
59556;DHT22;45374;52.746;6.304;2023-03-31T02:32:11;9.50;99.90
59556;DHT22;45374;52.746;6.304;2023-03-31T02:34:38;9.50;99.90
59556;DHT22;45374;52.746;6.304;2023-03-31T02:37:04;9.50;99.90
59556;DHT22;45374;52.746;6.304;2023-03-31T02:39:33;9.50;99.90
59556;DHT22;45374;52.746;6.304;2023-03-31T02:42:00;9.50;99.90
59556;DHT22;45374;52.746;6.304;2023-03-31T02:44:38;9.60;99.90
59556;DHT22;45374;52.746;6.304;2023-03-31T02:47:07;9.60;99.90
59556;DHT22;45374;52.746;6.304;2023-03-31T02:49:35;9.60;99.90
59556;DHT22;45374;52.746;6.304;2023-03-31T02:52:22;9.60;99.90
59556;DHT22;45374;52.746;6.304;2023-03-31T02:55:08;9.60;99.90
59556;DHT22;45374;52.746;6.304;2023-03-31T02:57:57;9.70;99.90
59556;DHT22;45374;52.746;6.304;2023-03-31T03:03:41;9.70;99.90
59556;DHT22;45374;52.746;6.304;2023-03-31T03:06:43;9.70;99.90
59556;DHT22;45374;52.746;6.304;2023-03-31T03:12:15;9.80;99.90
59556;DHT22;45374;52.746;6.304;2023-03-31T03:15:12;9.80;99.90
59556;DHT22;45374;52.746;6.304;2023-03-31T03:17:46;9.80;99.90
59556;DHT22;45374;52.746;6.304;2023-03-31T03:20:13;9.80;99.90
59556;DHT22;45374;52.746;6.304;2023-03-31T03:22:40;9.80;99.90
59556;DHT22;45374;52.746;6.304;2023-03-31T03:25:08;9.80;99.90
59556;DHT22;45374;52.746;6.304;2023-03-31T03:27:35;9.80;99.90
59556;DHT22;45374;52.746;6.304;2023-03-31T03:30:01;9.80;99.90
59556;DHT22;45374;52.746;6.304;2023-03-31T03:32:28;9.80;99.90
59556;DHT22;45374;52.746;6.304;2023-03-31T03:34:53;9.80;99.90
59556;DHT22;45374;52.746;6.304;2023-03-31T03:37:19;9.80;99.90
59556;DHT22;45374;52.746;6.304;2023-03-31T03:39:45;9.80;99.90
59556;DHT22;45374;52.746;6.304;2023-03-31T03:42:10;9.80;99.90
59556;DHT22;45374;52.746;6.304;2023-03-31T03:51:09;9.80;99.90
59556;DHT22;45374;52.746;6.304;2023-03-31T03:53:35;9.80;99.90
59556;DHT22;45374;52.746;6.304;2023-03-31T03:56:00;9.80;99.90
59556;DHT22;45374;52.746;6.304;2023-03-31T03:58:27;9.80;99.90
59556;DHT22;45374;52.746;6.304;2023-03-31T04:04:33;9.80;99.90
59556;DHT22;45374;52.746;6.304;2023-03-31T04:06:59;9.80;99.90
59556;DHT22;45374;52.746;6.304;2023-03-31T04:09:25;9.80;99.90
59556;DHT22;45374;52.746;6.304;2023-03-31T04:11:50;9.80;99.90
59556;DHT22;45374;52.746;6.304;2023-03-31T04:14:16;9.80;99.90
59556;DHT22;45374;52.746;6.304;2023-03-31T04:16:41;9.80;99.90
59556;DHT22;45374;52.746;6.304;2023-03-31T04:19:07;9.80;99.90
59556;DHT22;45374;52.746;6.304;2023-03-31T04:21:35;9.80;99.90
59556;DHT22;45374;52.746;6.304;2023-03-31T04:24:01;9.80;99.90
59556;DHT22;45374;52.746;6.304;2023-03-31T04:26:31;9.70;99.90
59556;DHT22;45374;52.746;6.304;2023-03-31T04:29:11;9.80;99.90
59556;DHT22;45374;52.746;6.304;2023-03-31T04:31:38;9.70;99.90
59556;DHT22;45374;52.746;6.304;2023-03-31T04:34:11;9.80;99.90
59556;DHT22;45374;52.746;6.304;2023-03-31T04:36:39;9.70;99.90
59556;DHT22;45374;52.746;6.304;2023-03-31T04:39:07;9.70;99.90
59556;DHT22;45374;52.746;6.304;2023-03-31T04:45:16;9.70;99.90
59556;DHT22;45374;52.746;6.304;2023-03-31T04:47:42;9.70;99.90
59556;DHT22;45374;52.746;6.304;2023-03-31T04:53:48;9.70;99.90
59556;DHT22;45374;52.746;6.304;2023-03-31T04:56:14;9.70;99.90
59556;DHT22;45374;52.746;6.304;2023-03-31T04:58:39;9.70;99.90
59556;DHT22;45374;52.746;6.304;2023-03-31T05:01:16;9.70;99.90
59556;DHT22;45374;52.746;6.304;2023-03-31T05:03:45;9.70;99.90
59556;DHT22;45374;52.746;6.304;2023-03-31T05:06:15;9.70;99.90
59556;DHT22;45374;52.746;6.304;2023-03-31T05:08:51;9.70;99.90
59556;DHT22;45374;52.746;6.304;2023-03-31T05:11:17;9.70;99.90
59556;DHT22;45374;52.746;6.304;2023-03-31T05:13:43;9.70;99.90
59556;DHT22;45374;52.746;6.304;2023-03-31T05:16:12;9.70;99.90
59556;DHT22;45374;52.746;6.304;2023-03-31T05:22:19;9.70;99.90
59556;DHT22;45374;52.746;6.304;2023-03-31T05:24:46;9.70;99.90
59556;DHT22;45374;52.746;6.304;2023-03-31T05:27:19;9.70;99.90
59556;DHT22;45374;52.746;6.304;2023-03-31T05:33:03;9.80;99.90
59556;DHT22;45374;52.746;6.304;2023-03-31T05:35:29;9.80;99.90
59556;DHT22;45374;52.746;6.304;2023-03-31T05:38:07;9.70;99.90
59556;DHT22;45374;52.746;6.304;2023-03-31T05:40:32;9.80;99.90
59556;DHT22;45374;52.746;6.304;2023-03-31T05:42:58;9.80;99.90
59556;DHT22;45374;52.746;6.304;2023-03-31T05:45:23;9.80;99.90
59556;DHT22;45374;52.746;6.304;2023-03-31T05:47:55;9.70;99.90
59556;DHT22;45374;52.746;6.304;2023-03-31T05:50:42;9.70;99.90
59556;DHT22;45374;52.746;6.304;2023-03-31T05:53:08;9.80;99.90
59556;DHT22;45374;52.746;6.304;2023-03-31T05:55:37;9.70;99.90
59556;DHT22;45374;52.746;6.304;2023-03-31T06:01:28;9.80;99.90
59556;DHT22;45374;52.746;6.304;2023-03-31T06:03:59;9.80;99.90
59556;DHT22;45374;52.746;6.304;2023-03-31T06:06:24;9.80;99.90
59556;DHT22;45374;52.746;6.304;2023-03-31T06:08:50;9.70;99.90
59556;DHT22;45374;52.746;6.304;2023-03-31T06:11:18;9.70;99.90
59556;DHT22;45374;52.746;6.304;2023-03-31T06:13:45;9.70;99.90
59556;DHT22;45374;52.746;6.304;2023-03-31T06:16:13;9.70;99.90
59556;DHT22;45374;52.746;6.304;2023-03-31T06:18:39;9.80;99.90
59556;DHT22;45374;52.746;6.304;2023-03-31T06:21:11;9.80;99.90
59556;DHT22;45374;52.746;6.304;2023-03-31T06:23:41;9.70;99.90
59556;DHT22;45374;52.746;6.304;2023-03-31T06:26:13;9.90;99.90
59556;DHT22;45374;52.746;6.304;2023-03-31T06:28:39;9.80;99.90
59556;DHT22;45374;52.746;6.304;2023-03-31T06:31:06;9.90;99.90
59556;DHT22;45374;52.746;6.304;2023-03-31T06:33:33;9.90;99.90
59556;DHT22;45374;52.746;6.304;2023-03-31T06:36:04;9.80;99.90
59556;DHT22;45374;52.746;6.304;2023-03-31T06:38:40;9.90;99.90
59556;DHT22;45374;52.746;6.304;2023-03-31T06:41:07;9.80;99.90
59556;DHT22;45374;52.746;6.304;2023-03-31T06:43:34;9.80;99.90
59556;DHT22;45374;52.746;6.304;2023-03-31T06:45:59;9.90;99.90
59556;DHT22;45374;52.746;6.304;2023-03-31T06:48:26;9.90;99.90
59556;DHT22;45374;52.746;6.304;2023-03-31T06:50:58;9.90;99.90
59556;DHT22;45374;52.746;6.304;2023-03-31T06:56:39;9.90;99.90
59556;DHT22;45374;52.746;6.304;2023-03-31T06:59:26;10.00;99.90
59556;DHT22;45374;52.746;6.304;2023-03-31T07:01:53;9.90;99.90
59556;DHT22;45374;52.746;6.304;2023-03-31T07:04:19;10.10;99.90
59556;DHT22;45374;52.746;6.304;2023-03-31T07:06:44;10.00;99.90
59556;DHT22;45374;52.746;6.304;2023-03-31T07:09:10;10.10;99.90
59556;DHT22;45374;52.746;6.304;2023-03-31T07:11:39;10.10;99.90
59556;DHT22;45374;52.746;6.304;2023-03-31T07:14:05;10.20;99.90
59556;DHT22;45374;52.746;6.304;2023-03-31T07:16:30;10.20;99.90
59556;DHT22;45374;52.746;6.304;2023-03-31T07:18:59;10.10;99.90
59556;DHT22;45374;52.746;6.304;2023-03-31T07:21:28;10.20;99.90
59556;DHT22;45374;52.746;6.304;2023-03-31T07:23:54;10.30;99.90
59556;DHT22;45374;52.746;6.304;2023-03-31T07:26:19;10.40;99.90
59556;DHT22;45374;52.746;6.304;2023-03-31T07:28:45;10.30;99.90
59556;DHT22;45374;52.746;6.304;2023-03-31T07:31:12;10.40;99.90
59556;DHT22;45374;52.746;6.304;2023-03-31T07:33:38;10.40;99.90
59556;DHT22;45374;52.746;6.304;2023-03-31T07:36:08;10.50;99.90
59556;DHT22;45374;52.746;6.304;2023-03-31T07:38:50;10.60;99.90
59556;DHT22;45374;52.746;6.304;2023-03-31T07:41:17;10.70;99.90
59556;DHT22;45374;52.746;6.304;2023-03-31T07:47:02;10.80;99.90
59556;DHT22;45374;52.746;6.304;2023-03-31T07:49:35;10.80;99.90
59556;DHT22;45374;52.746;6.304;2023-03-31T07:52:04;10.80;99.90
59556;DHT22;45374;52.746;6.304;2023-03-31T07:54:59;10.90;99.90
59556;DHT22;45374;52.746;6.304;2023-03-31T07:57:31;10.90;99.90
59556;DHT22;45374;52.746;6.304;2023-03-31T08:00:30;11.00;99.90
59556;DHT22;45374;52.746;6.304;2023-03-31T08:02:56;11.00;99.90
59556;DHT22;45374;52.746;6.304;2023-03-31T08:05:22;11.10;99.90
59556;DHT22;45374;52.746;6.304;2023-03-31T08:07:48;11.10;99.90
59556;DHT22;45374;52.746;6.304;2023-03-31T08:10:18;11.10;99.90
59556;DHT22;45374;52.746;6.304;2023-03-31T08:15:56;11.20;99.90
59556;DHT22;45374;52.746;6.304;2023-03-31T08:18:23;11.20;99.90
59556;DHT22;45374;52.746;6.304;2023-03-31T08:20:48;11.30;99.90
59556;DHT22;45374;52.746;6.304;2023-03-31T08:23:14;11.20;99.90
59556;DHT22;45374;52.746;6.304;2023-03-31T08:25:40;11.30;99.90
59556;DHT22;45374;52.746;6.304;2023-03-31T08:28:08;11.30;99.90
59556;DHT22;45374;52.746;6.304;2023-03-31T08:30:48;11.30;99.90
59556;DHT22;45374;52.746;6.304;2023-03-31T08:33:14;11.30;99.90
59556;DHT22;45374;52.746;6.304;2023-03-31T08:35:39;11.30;99.90
59556;DHT22;45374;52.746;6.304;2023-03-31T08:38:05;11.40;99.90
59556;DHT22;45374;52.746;6.304;2023-03-31T08:40:32;11.40;99.90
59556;DHT22;45374;52.746;6.304;2023-03-31T08:43:03;11.40;99.90
59556;DHT22;45374;52.746;6.304;2023-03-31T08:45:49;11.40;99.90
59556;DHT22;45374;52.746;6.304;2023-03-31T08:48:37;11.50;99.90
59556;DHT22;45374;52.746;6.304;2023-03-31T08:54:42;11.70;99.90
59556;DHT22;45374;52.746;6.304;2023-03-31T08:57:49;11.80;99.90
59556;DHT22;45374;52.746;6.304;2023-03-31T09:00:17;11.80;99.90
59556;DHT22;45374;52.746;6.304;2023-03-31T09:11:07;11.60;99.90
59556;DHT22;45374;52.746;6.304;2023-03-31T09:13:50;11.70;99.90
59556;DHT22;45374;52.746;6.304;2023-03-31T09:16:25;11.70;99.90
59556;DHT22;45374;52.746;6.304;2023-03-31T09:19:00;11.70;99.90
59556;DHT22;45374;52.746;6.304;2023-03-31T09:21:48;11.80;99.90
59556;DHT22;45374;52.746;6.304;2023-03-31T09:24:21;11.80;99.90
59556;DHT22;45374;52.746;6.304;2023-03-31T09:27:04;11.80;99.90
59556;DHT22;45374;52.746;6.304;2023-03-31T09:29:40;11.80;99.90
59556;DHT22;45374;52.746;6.304;2023-03-31T09:32:19;11.90;99.90
59556;DHT22;45374;52.746;6.304;2023-03-31T09:38:03;12.10;99.90
59556;DHT22;45374;52.746;6.304;2023-03-31T09:40:28;12.10;99.90
59556;DHT22;45374;52.746;6.304;2023-03-31T09:43:00;12.10;99.90
59556;DHT22;45374;52.746;6.304;2023-03-31T09:45:32;12.20;99.90
59556;DHT22;45374;52.746;6.304;2023-03-31T09:48:03;12.30;99.90
59556;DHT22;45374;52.746;6.304;2023-03-31T09:51:04;12.30;99.90
59556;DHT22;45374;52.746;6.304;2023-03-31T09:54:09;12.50;99.90
59556;DHT22;45374;52.746;6.304;2023-03-31T09:59:14;12.60;99.90
59556;DHT22;45374;52.746;6.304;2023-03-31T10:01:41;12.80;99.90
59556;DHT22;45374;52.746;6.304;2023-03-31T10:04:07;12.80;99.90
59556;DHT22;45374;52.746;6.304;2023-03-31T10:06:39;12.90;99.90
59556;DHT22;45374;52.746;6.304;2023-03-31T10:09:09;13.00;99.90
59556;DHT22;45374;52.746;6.304;2023-03-31T10:14:45;13.30;99.90
59556;DHT22;45374;52.746;6.304;2023-03-31T10:17:16;13.40;99.90
59556;DHT22;45374;52.746;6.304;2023-03-31T10:19:53;13.50;99.90
59556;DHT22;45374;52.746;6.304;2023-03-31T10:22:30;13.60;99.90
59556;DHT22;45374;52.746;6.304;2023-03-31T10:25:20;13.70;99.90
59556;DHT22;45374;52.746;6.304;2023-03-31T10:27:51;13.50;99.90
59556;DHT22;45374;52.746;6.304;2023-03-31T10:30:20;13.40;99.90
59556;DHT22;45374;52.746;6.304;2023-03-31T10:32:46;13.30;99.90
59556;DHT22;45374;52.746;6.304;2023-03-31T10:37:43;13.00;99.90
59556;DHT22;45374;52.746;6.304;2023-03-31T10:40:15;12.90;99.90
59556;DHT22;45374;52.746;6.304;2023-03-31T10:42:46;12.80;99.90
59556;DHT22;45374;52.746;6.304;2023-03-31T10:49:23;12.80;99.90
59556;DHT22;45374;52.746;6.304;2023-03-31T10:51:56;12.90;99.90
59556;DHT22;45374;52.746;6.304;2023-03-31T11:00:24;13.00;99.90
59556;DHT22;45374;52.746;6.304;2023-03-31T11:03:00;13.00;99.90
59556;DHT22;45374;52.746;6.304;2023-03-31T11:05:37;13.00;99.90
59556;DHT22;45374;52.746;6.304;2023-03-31T11:08:22;13.20;99.90
59556;DHT22;45374;52.746;6.304;2023-03-31T11:11:02;13.30;99.90
59556;DHT22;45374;52.746;6.304;2023-03-31T11:19:58;13.30;99.90
59556;DHT22;45374;52.746;6.304;2023-03-31T11:23:01;13.40;99.90
59556;DHT22;45374;52.746;6.304;2023-03-31T11:25:38;13.40;99.90
59556;DHT22;45374;52.746;6.304;2023-03-31T11:28:18;13.30;99.90
59556;DHT22;45374;52.746;6.304;2023-03-31T11:31:03;13.30;99.90
59556;DHT22;45374;52.746;6.304;2023-03-31T11:42:18;13.50;99.90
59556;DHT22;45374;52.746;6.304;2023-03-31T11:44:54;13.70;99.90
59556;DHT22;45374;52.746;6.304;2023-03-31T11:47:31;13.90;99.90
59556;DHT22;45374;52.746;6.304;2023-03-31T11:50:10;13.90;99.90
59556;DHT22;45374;52.746;6.304;2023-03-31T11:52:41;13.90;99.90
59556;DHT22;45374;52.746;6.304;2023-03-31T11:55:17;13.80;99.90
59556;DHT22;45374;52.746;6.304;2023-03-31T12:00:34;13.80;99.90
59556;DHT22;45374;52.746;6.304;2023-03-31T12:03:23;13.90;99.90
59556;DHT22;45374;52.746;6.304;2023-03-31T12:05:57;13.90;99.90
59556;DHT22;45374;52.746;6.304;2023-03-31T12:11:19;14.10;99.90
59556;DHT22;45374;52.746;6.304;2023-03-31T12:13:49;14.20;99.90
59556;DHT22;45374;52.746;6.304;2023-03-31T12:16:39;14.10;99.90
59556;DHT22;45374;52.746;6.304;2023-03-31T12:21:40;14.00;99.90
59556;DHT22;45374;52.746;6.304;2023-03-31T12:24:11;13.90;99.90
59556;DHT22;45374;52.746;6.304;2023-03-31T12:29:40;13.60;99.90
59556;DHT22;45374;52.746;6.304;2023-03-31T12:32:13;13.40;99.90
59556;DHT22;45374;52.746;6.304;2023-03-31T12:35:01;13.30;99.90
59556;DHT22;45374;52.746;6.304;2023-03-31T12:38:04;13.00;99.90
59556;DHT22;45374;52.746;6.304;2023-03-31T12:40:58;13.00;99.90
59556;DHT22;45374;52.746;6.304;2023-03-31T12:43:56;13.10;99.90
59556;DHT22;45374;52.746;6.304;2023-03-31T12:49:32;13.30;99.90
59556;DHT22;45374;52.746;6.304;2023-03-31T12:52:26;13.30;99.90
59556;DHT22;45374;52.746;6.304;2023-03-31T12:57:25;13.20;99.90
59556;DHT22;45374;52.746;6.304;2023-03-31T13:02:41;13.30;99.90
59556;DHT22;45374;52.746;6.304;2023-03-31T13:08:48;13.60;99.90
59556;DHT22;45374;52.746;6.304;2023-03-31T13:11:14;13.50;99.90
59556;DHT22;45374;52.746;6.304;2023-03-31T13:13:59;13.40;99.90
59556;DHT22;45374;52.746;6.304;2023-03-31T13:16:29;13.30;99.90
59556;DHT22;45374;52.746;6.304;2023-03-31T13:18:55;13.00;99.90
59556;DHT22;45374;52.746;6.304;2023-03-31T13:21:24;12.80;99.90
59556;DHT22;45374;52.746;6.304;2023-03-31T13:23:51;12.70;99.90
59556;DHT22;45374;52.746;6.304;2023-03-31T13:26:35;12.60;99.90
59556;DHT22;45374;52.746;6.304;2023-03-31T13:29:22;12.60;99.90
59556;DHT22;45374;52.746;6.304;2023-03-31T13:34:50;12.80;99.90
59556;DHT22;45374;52.746;6.304;2023-03-31T13:49:11;12.90;99.90
59556;DHT22;45374;52.746;6.304;2023-03-31T13:52:08;12.80;99.90
59556;DHT22;45374;52.746;6.304;2023-03-31T13:55:05;12.70;99.90
59556;DHT22;45374;52.746;6.304;2023-03-31T14:04:11;12.50;99.90
59556;DHT22;45374;52.746;6.304;2023-03-31T14:06:59;12.40;99.90
59556;DHT22;45374;52.746;6.304;2023-03-31T14:09:32;12.60;99.90
59556;DHT22;45374;52.746;6.304;2023-03-31T14:14:52;12.80;99.90
59556;DHT22;45374;52.746;6.304;2023-03-31T14:17:18;13.00;99.90
59556;DHT22;45374;52.746;6.304;2023-03-31T14:19:58;13.20;99.90
59556;DHT22;45374;52.746;6.304;2023-03-31T14:34:21;13.60;99.90
59556;DHT22;45374;52.746;6.304;2023-03-31T14:37:03;13.60;99.90
59556;DHT22;45374;52.746;6.304;2023-03-31T14:43:20;13.60;99.90
59556;DHT22;45374;52.746;6.304;2023-03-31T14:45:49;13.80;99.90
59556;DHT22;45374;52.746;6.304;2023-03-31T14:48:17;13.80;99.90
59556;DHT22;45374;52.746;6.304;2023-03-31T14:50:45;14.00;99.90
59556;DHT22;45374;52.746;6.304;2023-03-31T14:53:22;14.10;99.90
59556;DHT22;45374;52.746;6.304;2023-03-31T14:55:48;14.20;99.90
59556;DHT22;45374;52.746;6.304;2023-03-31T14:58:24;14.30;99.90
59556;DHT22;45374;52.746;6.304;2023-03-31T15:00:51;14.40;99.90
59556;DHT22;45374;52.746;6.304;2023-03-31T15:03:18;14.40;99.90
59556;DHT22;45374;52.746;6.304;2023-03-31T15:05:44;14.40;99.90
59556;DHT22;45374;52.746;6.304;2023-03-31T15:08:14;14.40;99.90
59556;DHT22;45374;52.746;6.304;2023-03-31T15:10:44;14.30;99.90
59556;DHT22;45374;52.746;6.304;2023-03-31T15:13:29;14.20;99.90
59556;DHT22;45374;52.746;6.304;2023-03-31T15:15:56;14.20;99.90
59556;DHT22;45374;52.746;6.304;2023-03-31T15:18:42;14.20;99.90
59556;DHT22;45374;52.746;6.304;2023-03-31T15:21:19;14.20;99.90
59556;DHT22;45374;52.746;6.304;2023-03-31T15:23:44;14.10;99.90
59556;DHT22;45374;52.746;6.304;2023-03-31T15:26:10;14.00;99.90
59556;DHT22;45374;52.746;6.304;2023-03-31T15:28:57;13.90;99.90
59556;DHT22;45374;52.746;6.304;2023-03-31T15:31:26;13.70;99.90
59556;DHT22;45374;52.746;6.304;2023-03-31T15:33:52;13.60;99.90
59556;DHT22;45374;52.746;6.304;2023-03-31T15:36:19;13.50;99.90
59556;DHT22;45374;52.746;6.304;2023-03-31T15:38:46;13.20;99.90
59556;DHT22;45374;52.746;6.304;2023-03-31T15:41:16;12.90;99.90
59556;DHT22;45374;52.746;6.304;2023-03-31T15:43:45;12.70;99.90
59556;DHT22;45374;52.746;6.304;2023-03-31T15:46:24;12.60;99.90
59556;DHT22;45374;52.746;6.304;2023-03-31T15:48:52;12.60;99.90
59556;DHT22;45374;52.746;6.304;2023-03-31T15:51:18;12.50;99.90
59556;DHT22;45374;52.746;6.304;2023-03-31T15:53:50;12.50;99.90
59556;DHT22;45374;52.746;6.304;2023-03-31T15:56:33;12.50;99.90
59556;DHT22;45374;52.746;6.304;2023-03-31T15:59:01;12.50;99.90
59556;DHT22;45374;52.746;6.304;2023-03-31T16:01:48;12.60;99.90
59556;DHT22;45374;52.746;6.304;2023-03-31T16:04:16;12.60;99.90
59556;DHT22;45374;52.746;6.304;2023-03-31T16:06:46;12.60;99.90
59556;DHT22;45374;52.746;6.304;2023-03-31T16:09:43;12.60;99.90
59556;DHT22;45374;52.746;6.304;2023-03-31T16:12:22;12.60;99.90
59556;DHT22;45374;52.746;6.304;2023-03-31T16:17:28;12.70;99.90
59556;DHT22;45374;52.746;6.304;2023-03-31T16:20:34;12.60;99.90
59556;DHT22;45374;52.746;6.304;2023-03-31T16:26:37;12.50;99.90
59556;DHT22;45374;52.746;6.304;2023-03-31T16:29:03;12.50;99.90
59556;DHT22;45374;52.746;6.304;2023-03-31T16:31:38;12.50;99.90
59556;DHT22;45374;52.746;6.304;2023-03-31T16:34:09;12.50;99.90
59556;DHT22;45374;52.746;6.304;2023-03-31T16:36:35;12.40;99.90
59556;DHT22;45374;52.746;6.304;2023-03-31T16:39:12;12.40;99.90
59556;DHT22;45374;52.746;6.304;2023-03-31T16:41:38;12.40;99.90
59556;DHT22;45374;52.746;6.304;2023-03-31T16:44:03;12.40;99.90
59556;DHT22;45374;52.746;6.304;2023-03-31T16:46:30;12.40;99.90
59556;DHT22;45374;52.746;6.304;2023-03-31T16:48:56;12.30;99.90
59556;DHT22;45374;52.746;6.304;2023-03-31T16:51:21;12.30;99.90
59556;DHT22;45374;52.746;6.304;2023-03-31T16:53:48;12.20;99.90
59556;DHT22;45374;52.746;6.304;2023-03-31T16:56:14;12.20;99.90
59556;DHT22;45374;52.746;6.304;2023-03-31T16:58:40;12.10;99.90
59556;DHT22;45374;52.746;6.304;2023-03-31T17:01:06;12.10;99.90
59556;DHT22;45374;52.746;6.304;2023-03-31T17:03:33;12.10;99.90
59556;DHT22;45374;52.746;6.304;2023-03-31T17:06:05;12.10;99.90
59556;DHT22;45374;52.746;6.304;2023-03-31T17:08:32;12.00;99.90
59556;DHT22;45374;52.746;6.304;2023-03-31T17:11:03;12.00;99.90
59556;DHT22;45374;52.746;6.304;2023-03-31T17:13:30;12.00;99.90
59556;DHT22;45374;52.746;6.304;2023-03-31T17:19:37;11.90;99.90
59556;DHT22;45374;52.746;6.304;2023-03-31T17:22:36;11.80;99.90
59556;DHT22;45374;52.746;6.304;2023-03-31T17:25:02;11.80;99.90
59556;DHT22;45374;52.746;6.304;2023-03-31T17:27:28;11.80;99.90
59556;DHT22;45374;52.746;6.304;2023-03-31T17:29:54;11.80;99.90
59556;DHT22;45374;52.746;6.304;2023-03-31T17:32:20;11.80;99.90
59556;DHT22;45374;52.746;6.304;2023-03-31T17:39:00;11.70;99.90
59556;DHT22;45374;52.746;6.304;2023-03-31T17:41:27;11.70;99.90
59556;DHT22;45374;52.746;6.304;2023-03-31T17:43:56;11.70;99.90
59556;DHT22;45374;52.746;6.304;2023-03-31T17:46:22;11.70;99.90
59556;DHT22;45374;52.746;6.304;2023-03-31T17:48:47;11.60;99.90
59556;DHT22;45374;52.746;6.304;2023-03-31T17:51:41;11.60;99.90
59556;DHT22;45374;52.746;6.304;2023-03-31T17:54:09;11.50;99.90
59556;DHT22;45374;52.746;6.304;2023-03-31T18:00:03;11.40;99.90
59556;DHT22;45374;52.746;6.304;2023-03-31T18:06:13;11.30;99.90
59556;DHT22;45374;52.746;6.304;2023-03-31T18:08:40;11.30;99.90
59556;DHT22;45374;52.746;6.304;2023-03-31T18:11:06;11.30;99.90
59556;DHT22;45374;52.746;6.304;2023-03-31T18:17:13;11.20;99.90
59556;DHT22;45374;52.746;6.304;2023-03-31T18:19:40;11.20;99.90
59556;DHT22;45374;52.746;6.304;2023-03-31T18:22:06;11.10;99.90
59556;DHT22;45374;52.746;6.304;2023-03-31T18:24:32;11.10;99.90
59556;DHT22;45374;52.746;6.304;2023-03-31T18:26:58;11.00;99.90
59556;DHT22;45374;52.746;6.304;2023-03-31T18:33:05;11.00;99.90
59556;DHT22;45374;52.746;6.304;2023-03-31T18:35:31;10.90;99.90
59556;DHT22;45374;52.746;6.304;2023-03-31T18:38:03;10.90;99.90
59556;DHT22;45374;52.746;6.304;2023-03-31T18:40:29;10.90;99.90
59556;DHT22;45374;52.746;6.304;2023-03-31T18:43:06;10.90;99.90
59556;DHT22;45374;52.746;6.304;2023-03-31T18:45:32;10.80;99.90
59556;DHT22;45374;52.746;6.304;2023-03-31T18:47:58;10.80;99.90
59556;DHT22;45374;52.746;6.304;2023-03-31T18:50:23;10.80;99.90
59556;DHT22;45374;52.746;6.304;2023-03-31T18:56:08;10.80;99.90
59556;DHT22;45374;52.746;6.304;2023-03-31T18:58:34;10.80;99.90
59556;DHT22;45374;52.746;6.304;2023-03-31T19:01:00;10.70;99.90
59556;DHT22;45374;52.746;6.304;2023-03-31T19:03:26;10.70;99.90
59556;DHT22;45374;52.746;6.304;2023-03-31T19:06:26;10.70;99.90
59556;DHT22;45374;52.746;6.304;2023-03-31T19:08:51;10.70;99.90
59556;DHT22;45374;52.746;6.304;2023-03-31T19:11:19;10.60;99.90
59556;DHT22;45374;52.746;6.304;2023-03-31T19:13:45;10.60;99.90
59556;DHT22;45374;52.746;6.304;2023-03-31T19:16:12;10.50;99.90
59556;DHT22;45374;52.746;6.304;2023-03-31T19:18:38;10.50;99.90
59556;DHT22;45374;52.746;6.304;2023-03-31T19:24:45;10.50;99.90
59556;DHT22;45374;52.746;6.304;2023-03-31T19:27:10;10.50;99.90
59556;DHT22;45374;52.746;6.304;2023-03-31T19:29:36;10.50;99.90
59556;DHT22;45374;52.746;6.304;2023-03-31T19:32:02;10.40;99.90
59556;DHT22;45374;52.746;6.304;2023-03-31T19:34:28;10.40;99.90
59556;DHT22;45374;52.746;6.304;2023-03-31T19:36:53;10.40;99.90